createdAt,value
2019-03-12T00:02:09.787Z,3.43
2019-03-12T00:04:39.412Z,2.80
2019-03-12T00:07:09.327Z,3.90
2019-03-12T00:09:39.139Z,3.47
2019-03-12T00:12:08.929Z,3.13
2019-03-12T00:14:41.425Z,3.23
2019-03-12T00:17:11.110Z,3.13
2019-03-12T00:19:41.523Z,3.07
2019-03-12T00:22:11.047Z,2.60
2019-03-12T00:24:40.711Z,2.77
2019-03-12T00:27:10.409Z,2.87
2019-03-12T00:29:41.044Z,3.00
2019-03-12T00:32:10.623Z,3.10
2019-03-12T00:34:41.088Z,3.07
2019-03-12T00:37:10.875Z,2.73
2019-03-12T00:39:40.585Z,2.70
2019-03-12T00:42:10.159Z,3.10
2019-03-12T00:44:40.983Z,3.20
2019-03-12T00:47:10.914Z,2.97
2019-03-12T00:49:41.179Z,3.07
2019-03-12T00:52:11.769Z,3.07
2019-03-12T00:54:41.511Z,2.30
2019-03-12T00:57:11.206Z,3.47
2019-03-12T00:59:40.932Z,3.33
2019-03-12T01:02:10.719Z,2.90
2019-03-12T01:04:40.842Z,3.10
2019-03-12T01:07:10.860Z,2.70
2019-03-12T01:09:40.807Z,3.03
2019-03-12T01:12:10.609Z,3.90
2019-03-12T01:14:41.102Z,3.73
2019-03-12T01:17:11.062Z,3.00
2019-03-12T01:19:41.410Z,3.00
2019-03-12T01:22:11.151Z,3.13
2019-03-12T01:24:41.524Z,3.53
2019-03-12T01:27:11.446Z,2.67
2019-03-12T01:29:41.663Z,3.00
2019-03-12T01:32:11.746Z,2.90
2019-03-12T01:34:41.589Z,5.00
2019-03-12T01:37:11.500Z,3.10
2019-03-12T01:39:41.483Z,2.80
2019-03-12T01:42:11.222Z,3.30
2019-03-12T01:44:41.046Z,3.13
2019-03-12T01:47:11.216Z,3.33
2019-03-12T01:49:40.807Z,2.87
2019-03-12T01:52:10.590Z,3.33
2019-03-12T01:54:40.296Z,3.50
2019-03-12T01:57:10.178Z,3.50
2019-03-12T01:59:40.534Z,3.23
2019-03-12T02:02:10.201Z,3.25
2019-03-12T02:04:39.798Z,3.27
2019-03-12T02:07:09.764Z,3.50
2019-03-12T02:09:39.356Z,3.60
2019-03-12T02:12:08.916Z,3.73
2019-03-12T02:14:38.620Z,3.20
2019-03-12T02:17:08.794Z,3.33
2019-03-12T02:19:38.631Z,4.10
2019-03-12T02:22:08.142Z,3.00
2019-03-12T02:24:38.217Z,3.07
2019-03-12T02:27:08.059Z,3.37
2019-03-12T02:29:37.823Z,3.90
2019-03-12T02:32:08.592Z,3.33
2019-03-12T02:34:38.970Z,3.23
2019-03-12T02:37:08.837Z,2.60
2019-03-12T02:39:38.612Z,3.00
2019-03-12T02:42:12.686Z,3.63
2019-03-12T02:44:41.424Z,3.12
2019-03-12T02:47:11.331Z,3.63
2019-03-12T02:49:41.394Z,3.20
2019-03-12T02:52:10.923Z,3.93
2019-03-12T02:54:40.660Z,3.33
2019-03-12T02:57:10.224Z,3.67
2019-03-12T02:59:40.041Z,3.10
2019-03-12T03:02:10.095Z,3.30
2019-03-12T03:04:39.782Z,3.80
2019-03-12T03:07:23.188Z,4.00
2019-03-12T03:09:52.958Z,3.90
2019-03-12T03:12:22.512Z,3.60
2019-03-12T03:14:52.277Z,4.00
2019-03-12T03:17:21.952Z,3.27
2019-03-12T03:19:51.632Z,3.63
2019-03-12T03:22:21.191Z,3.40
2019-03-12T03:24:51.308Z,4.10
2019-03-12T03:27:20.951Z,4.43
2019-03-12T03:29:50.836Z,3.17
2019-03-12T03:32:20.534Z,4.70
2019-03-12T03:34:50.459Z,4.07
2019-03-12T03:37:20.167Z,4.10
2019-03-12T03:39:50.362Z,4.00
2019-03-12T03:42:20.260Z,4.60
2019-03-12T03:44:49.817Z,3.40
2019-03-12T03:47:20.098Z,3.80
2019-03-12T03:49:49.701Z,3.35
2019-03-12T03:52:19.351Z,3.73
2019-03-12T03:54:49.752Z,3.83
2019-03-12T03:57:19.420Z,3.20
2019-03-12T03:59:49.191Z,3.47
2019-03-12T04:02:18.922Z,3.80
2019-03-12T04:04:48.512Z,5.50
2019-03-12T04:07:18.204Z,4.50
2019-03-12T04:09:48.806Z,4.00
2019-03-12T04:12:18.459Z,4.57
2019-03-12T04:14:48.679Z,3.80
2019-03-12T04:17:18.256Z,3.97
2019-03-12T04:19:47.961Z,3.60
2019-03-12T04:22:17.721Z,4.10
2019-03-12T04:24:47.297Z,4.07
2019-03-12T04:27:17.035Z,3.77
2019-03-12T04:29:47.119Z,3.70
2019-03-12T04:32:16.714Z,4.47
2019-03-12T04:34:46.368Z,3.77
2019-03-12T04:37:16.257Z,4.27
2019-03-12T04:39:45.903Z,4.35
2019-03-12T04:42:15.643Z,5.28
2019-03-12T04:44:47.507Z,4.30
2019-03-12T04:47:17.187Z,4.72
2019-03-12T04:49:46.922Z,4.85
2019-03-12T04:52:16.720Z,4.33
2019-03-12T04:54:46.416Z,4.30
2019-03-12T04:57:16.211Z,4.78
2019-03-12T04:59:45.783Z,4.20
2019-03-12T05:02:15.475Z,3.70
2019-03-12T05:04:45.338Z,4.00
2019-03-12T05:07:15.094Z,4.37
2019-03-12T05:09:44.784Z,4.20
2019-03-12T05:12:14.530Z,4.78
2019-03-12T05:14:45.659Z,4.30
2019-03-12T05:17:24.174Z,4.67
2019-03-12T05:19:54.565Z,4.43
2019-03-12T05:22:25.648Z,4.63
2019-03-12T05:24:55.460Z,5.20
2019-03-12T05:27:25.233Z,4.70
2019-03-12T05:29:55.145Z,4.30
2019-03-12T05:32:24.952Z,4.10
2019-03-12T05:34:55.284Z,4.23
2019-03-12T05:37:25.095Z,4.60
2019-03-12T05:39:56.062Z,5.07
2019-03-12T05:42:25.885Z,4.70
2019-03-12T05:44:55.790Z,4.55
2019-03-12T05:47:25.516Z,5.70
2019-03-12T05:49:55.862Z,5.90
2019-03-12T05:52:25.541Z,4.00
2019-03-12T05:54:56.210Z,5.50
2019-03-12T05:57:27.069Z,5.03
2019-03-12T05:59:56.920Z,4.00
2019-03-12T06:02:27.297Z,4.87
2019-03-12T06:04:58.554Z,5.40
2019-03-12T06:07:28.345Z,5.33
2019-03-12T06:09:58.679Z,4.42
2019-03-12T06:12:28.341Z,4.67
2019-03-12T06:14:58.319Z,4.80
2019-03-12T06:17:28.061Z,5.03
2019-03-12T06:19:57.968Z,4.23
2019-03-12T06:22:27.796Z,5.30
2019-03-12T06:24:58.387Z,4.50
2019-03-12T06:27:29.395Z,5.60
2019-03-12T06:29:59.367Z,5.87
2019-03-12T06:32:42.670Z,5.43
2019-03-12T06:35:20.814Z,4.07
2019-03-12T06:38:01.043Z,5.27
2019-03-12T06:40:55.439Z,6.07
2019-03-12T06:43:56.812Z,4.97
2019-03-12T06:46:51.339Z,4.63
2019-03-12T06:49:39.251Z,8.63
2019-03-12T06:52:21.858Z,5.07
2019-03-12T06:55:26.047Z,4.20
2019-03-12T06:58:37.231Z,4.73
2019-03-12T07:01:30.505Z,5.63
2019-03-12T07:04:25.630Z,4.30
2019-03-12T07:07:17.021Z,4.37
2019-03-12T07:09:55.043Z,4.53
2019-03-12T07:12:50.659Z,5.20
2019-03-12T07:15:30.147Z,4.30
2019-03-12T07:18:21.923Z,5.00
2019-03-12T07:21:16.839Z,5.83
2019-03-12T07:24:09.138Z,4.60
2019-03-12T07:27:02.727Z,4.47
2019-03-12T07:29:57.958Z,5.20
2019-03-12T07:32:46.021Z,4.40
2019-03-12T07:35:40.466Z,4.90
2019-03-12T07:38:38.317Z,4.07
2019-03-12T07:41:32.103Z,4.50
2019-03-12T07:44:13.099Z,5.57
2019-03-12T07:47:01.639Z,4.50
2019-03-12T07:49:53.077Z,4.70
2019-03-12T07:52:43.675Z,4.93
2019-03-12T07:55:46.485Z,5.20
2019-03-12T07:58:35.570Z,4.50
2019-03-12T08:01:15.890Z,3.93
2019-03-12T08:04:02.073Z,4.17
2019-03-12T08:06:49.303Z,4.60
2019-03-12T08:09:29.399Z,4.27
2019-03-12T08:12:07.523Z,4.77
2019-03-12T08:14:45.834Z,4.53
2019-03-12T08:17:43.511Z,4.23
2019-03-12T08:20:32.122Z,4.83
2019-03-12T08:23:24.083Z,4.23
2019-03-12T08:26:11.578Z,4.83
2019-03-12T08:29:00.410Z,4.83
2019-03-12T08:31:46.170Z,3.90
2019-03-12T08:34:41.511Z,4.60
2019-03-12T08:37:33.526Z,4.13
2019-03-12T08:40:30.208Z,3.77
2019-03-12T08:43:25.586Z,5.00
2019-03-12T08:46:21.722Z,4.40
2019-03-12T08:49:07.867Z,3.70
2019-03-12T08:51:58.525Z,3.50
2019-03-12T08:55:03.948Z,4.70
2019-03-12T08:57:50.987Z,4.33
2019-03-12T09:00:36.746Z,3.87
2019-03-12T09:03:26.647Z,4.13
2019-03-12T09:06:06.481Z,4.53
2019-03-12T09:08:52.083Z,4.27
2019-03-12T09:11:50.005Z,4.00
2019-03-12T09:14:49.338Z,4.73
2019-03-12T09:17:46.868Z,4.57
2019-03-12T09:20:26.852Z,4.70
2019-03-12T09:23:13.378Z,4.70
2019-03-12T09:25:56.183Z,4.00
2019-03-12T09:28:50.726Z,3.80
2019-03-12T09:31:32.347Z,3.10
2019-03-12T09:34:18.862Z,3.37
2019-03-12T09:36:55.763Z,3.57
2019-03-12T09:39:33.438Z,4.00
2019-03-12T09:42:13.067Z,4.23
2019-03-12T09:45:00.617Z,4.07
2019-03-12T09:47:58.727Z,4.17
2019-03-12T09:50:35.646Z,3.60
2019-03-12T09:53:21.367Z,3.90
2019-03-12T09:56:20.263Z,4.67
2019-03-12T09:59:10.527Z,3.83
2019-03-12T10:01:55.308Z,3.40
2019-03-12T10:04:44.645Z,3.33
2019-03-12T10:07:45.748Z,4.07
2019-03-12T10:10:40.047Z,4.20
2019-03-12T10:13:32.954Z,2.77
2019-03-12T10:16:33.774Z,3.60
2019-03-12T10:19:21.571Z,3.97
2019-03-12T10:22:16.553Z,2.83
2019-03-12T10:25:14.832Z,3.57
2019-03-12T10:28:09.394Z,2.83
2019-03-12T10:31:14.828Z,2.80
2019-03-12T10:34:09.958Z,2.03
2019-03-12T10:37:11.277Z,2.60
2019-03-12T10:40:19.117Z,2.03
2019-03-12T10:43:22.083Z,2.90
2019-03-12T10:45:57.508Z,2.63
2019-03-12T10:48:28.666Z,3.33
2019-03-12T10:50:59.265Z,2.73
2019-03-12T10:53:31.253Z,2.27
2019-03-12T10:56:01.167Z,2.60
2019-03-12T10:58:31.594Z,2.10
2019-03-12T11:01:01.853Z,2.50
2019-03-12T11:03:32.562Z,2.80
2019-03-12T11:06:02.506Z,3.17
2019-03-12T11:08:32.847Z,2.60
2019-03-12T11:11:02.877Z,3.00
2019-03-12T11:13:33.064Z,2.70
2019-03-12T11:16:04.104Z,2.67
2019-03-12T11:18:34.027Z,3.17
2019-03-12T11:21:04.538Z,2.33
2019-03-12T11:23:35.055Z,3.27
2019-03-12T11:26:04.955Z,2.60
2019-03-12T11:28:34.938Z,2.53
2019-03-12T11:31:05.330Z,2.83
2019-03-12T11:33:36.792Z,2.80
2019-03-12T11:36:06.625Z,2.50
2019-03-12T11:38:37.135Z,2.50
2019-03-12T11:41:07.207Z,2.67
2019-03-12T11:43:37.432Z,3.40
2019-03-12T11:46:08.201Z,3.73
2019-03-12T11:48:38.836Z,3.70
2019-03-12T11:51:08.830Z,2.50
2019-03-12T11:53:39.487Z,2.47
2019-03-12T11:56:09.240Z,2.70
2019-03-12T11:58:39.278Z,2.53
2019-03-12T12:01:14.798Z,2.50
2019-03-12T18:26:16.315Z,3.23
2019-03-12T18:28:46.010Z,3.43
2019-03-12T18:31:15.935Z,3.07
2019-03-12T18:33:45.639Z,3.50
2019-03-12T18:36:15.523Z,3.63
2019-03-12T18:38:45.264Z,2.60
2019-03-12T18:41:14.984Z,2.97
2019-03-12T18:43:45.258Z,2.93
2019-03-12T18:46:15.350Z,2.90
2019-03-12T18:48:45.393Z,3.00
2019-03-12T18:51:15.307Z,2.40
2019-03-12T18:53:44.997Z,2.57
2019-03-12T18:56:15.259Z,2.77
2019-03-12T18:58:45.275Z,2.67
2019-03-12T19:01:15.931Z,2.90
2019-03-12T19:03:45.814Z,2.90
2019-03-12T19:06:15.519Z,3.20
2019-03-12T19:08:48.081Z,3.10
2019-03-12T19:11:17.749Z,3.30
2019-03-12T19:13:50.730Z,4.70
2019-03-12T19:16:20.610Z,3.50
2019-03-12T19:18:50.367Z,2.93
2019-03-12T19:21:20.471Z,3.50
2019-03-12T19:23:50.752Z,2.80
2019-03-12T19:26:21.475Z,3.57
2019-03-12T19:28:52.179Z,2.97
2019-03-12T19:31:43.880Z,2.63
2019-03-12T19:34:17.755Z,2.70
2019-03-12T19:36:47.552Z,2.93
2019-03-12T19:39:19.035Z,2.70
2019-03-12T19:41:48.820Z,3.83
2019-03-12T19:44:18.793Z,3.03
2019-03-12T19:46:48.343Z,2.73
2019-03-12T19:49:18.716Z,2.70
2019-03-12T19:51:49.703Z,3.33
2019-03-12T19:54:20.048Z,2.70
2019-03-12T19:56:49.851Z,2.73
2019-03-12T19:59:20.286Z,2.20
2019-03-12T20:01:53.764Z,2.70
2019-03-12T20:04:24.309Z,2.50
2019-03-12T20:06:56.659Z,2.50
2019-03-12T20:10:00.352Z,2.80
2019-03-12T20:13:09.873Z,2.60
2019-03-12T20:16:27.207Z,2.97
2019-03-12T20:19:32.775Z,3.43
2019-03-12T20:22:40.864Z,3.37
2019-03-12T20:25:49.951Z,2.63
2019-03-12T20:29:10.450Z,3.07
2019-03-12T20:32:17.585Z,3.23
2019-03-12T20:35:30.591Z,2.70
2019-03-12T20:38:44.059Z,2.97
2019-03-12T20:42:02.051Z,2.83
2019-03-12T20:45:24.973Z,3.07
2019-03-12T20:48:43.656Z,3.90
2019-03-12T20:51:59.463Z,2.70
2019-03-12T20:55:07.282Z,2.67
2019-03-12T20:58:17.038Z,3.20
2019-03-12T21:01:22.504Z,3.63
2019-03-12T21:04:34.147Z,2.80
2019-03-12T21:07:59.169Z,2.60
2019-03-12T21:11:18.841Z,3.03
2019-03-12T21:14:15.792Z,2.67
2019-03-12T21:17:22.187Z,2.57
2019-03-12T21:20:34.221Z,2.40
2019-03-12T21:23:26.637Z,3.50
2019-03-12T21:26:38.073Z,3.83
2019-03-12T21:29:46.703Z,2.50
2019-03-12T21:32:18.451Z,3.00
2019-03-12T21:34:49.271Z,2.30
2019-03-12T21:37:20.248Z,3.87
2019-03-12T21:39:55.805Z,2.70
2019-03-12T21:42:21.320Z,2.43
2019-03-12T21:44:51.841Z,2.27
2019-03-12T21:47:21.600Z,2.63
2019-03-12T21:49:51.433Z,3.13
2019-03-12T21:52:21.307Z,2.20
2019-03-12T21:54:52.518Z,2.77
2019-03-12T21:57:22.945Z,2.30
2019-03-12T21:59:52.628Z,1.73
2019-03-12T22:02:24.179Z,2.00
2019-03-12T22:04:55.212Z,2.33
2019-03-12T22:07:25.008Z,1.80
2019-03-12T22:09:54.638Z,2.33
2019-03-12T22:12:24.372Z,2.37
2019-03-12T22:14:55.677Z,2.43
2019-03-12T22:17:25.362Z,2.37
2019-03-12T22:19:55.326Z,1.90
2019-03-12T22:22:42.466Z,1.90
2019-03-12T22:25:13.128Z,2.43
2019-03-12T22:27:43.515Z,2.77
2019-03-12T22:30:15.969Z,2.40
2019-03-12T22:32:45.737Z,2.63
2019-03-12T22:35:16.112Z,2.20
2019-03-12T22:37:45.929Z,2.03
2019-03-12T22:40:15.760Z,2.40
2019-03-12T22:42:45.524Z,12.43
2019-03-12T22:45:15.866Z,2.40
2019-03-12T22:47:46.723Z,2.30
2019-03-12T22:50:16.552Z,2.60
2019-03-12T22:52:46.329Z,2.17
2019-03-12T22:55:16.367Z,1.93
2019-03-12T22:57:46.109Z,2.00
2019-03-12T23:00:16.279Z,1.93
2019-03-12T23:02:45.995Z,2.80
2019-03-12T23:05:15.835Z,2.27
2019-03-12T23:07:45.642Z,2.50
2019-03-12T23:10:16.614Z,2.00
2019-03-12T23:12:46.243Z,2.40
2019-03-12T23:15:16.923Z,1.83
2019-03-12T23:17:47.685Z,2.00
2019-03-12T23:20:18.879Z,2.07
2019-03-12T23:22:51.921Z,1.87
2019-03-12T23:25:20.735Z,1.70
2019-03-12T23:27:50.535Z,1.63
2019-03-12T23:30:20.911Z,2.20
2019-03-12T23:32:50.997Z,2.43
2019-03-12T23:35:20.690Z,2.27
2019-03-12T23:37:50.327Z,1.73
2019-03-12T23:40:21.040Z,2.00
2019-03-12T23:42:50.731Z,2.30
2019-03-12T23:45:20.887Z,1.50
2019-03-12T23:47:50.832Z,1.77
2019-03-12T23:50:20.686Z,1.90
2019-03-12T23:52:51.380Z,2.20
2019-03-12T23:55:21.451Z,1.73
2019-03-12T23:57:51.132Z,1.60
